sensor_id;sensor_type;location;lat;lon;timestamp;P1;durP1;ratioP1;P2;durP2;ratioP2
48897;SDS011;34713;50.038;20.000;2022-12-18T00:01:02;71.57;;;29.32;;
48897;SDS011;34713;50.038;20.000;2022-12-18T00:03:33;73.25;;;31.48;;
48897;SDS011;34713;50.038;20.000;2022-12-18T00:05:59;73.35;;;30.68;;
48897;SDS011;34713;50.038;20.000;2022-12-18T00:08:25;72.62;;;30.57;;
48897;SDS011;34713;50.038;20.000;2022-12-18T00:10:51;67.00;;;28.30;;
48897;SDS011;34713;50.038;20.000;2022-12-18T00:13:16;75.87;;;31.57;;
48897;SDS011;34713;50.038;20.000;2022-12-18T00:15:42;67.60;;;29.48;;
48897;SDS011;34713;50.038;20.000;2022-12-18T00:18:08;66.02;;;28.73;;
48897;SDS011;34713;50.038;20.000;2022-12-18T00:20:37;65.12;;;26.73;;
48897;SDS011;34713;50.038;20.000;2022-12-18T00:23:05;71.00;;;28.02;;
48897;SDS011;34713;50.038;20.000;2022-12-18T00:25:32;65.87;;;28.32;;
48897;SDS011;34713;50.038;20.000;2022-12-18T00:28:00;65.72;;;27.62;;
48897;SDS011;34713;50.038;20.000;2022-12-18T00:30:28;69.20;;;31.03;;
48897;SDS011;34713;50.038;20.000;2022-12-18T00:32:53;67.20;;;29.12;;
48897;SDS011;34713;50.038;20.000;2022-12-18T00:35:19;67.85;;;28.83;;
48897;SDS011;34713;50.038;20.000;2022-12-18T00:37:45;68.15;;;27.87;;
48897;SDS011;34713;50.038;20.000;2022-12-18T00:40:11;64.00;;;27.00;;
48897;SDS011;34713;50.038;20.000;2022-12-18T00:42:37;67.42;;;27.60;;
48897;SDS011;34713;50.038;20.000;2022-12-18T00:45:25;63.30;;;27.20;;
48897;SDS011;34713;50.038;20.000;2022-12-18T00:47:53;66.97;;;27.20;;
48897;SDS011;34713;50.038;20.000;2022-12-18T00:50:20;59.18;;;26.15;;
48897;SDS011;34713;50.038;20.000;2022-12-18T00:52:47;65.20;;;26.90;;
48897;SDS011;34713;50.038;20.000;2022-12-18T00:55:13;63.87;;;27.42;;
48897;SDS011;34713;50.038;20.000;2022-12-18T00:57:39;63.25;;;28.23;;
48897;SDS011;34713;50.038;20.000;2022-12-18T01:00:07;67.45;;;27.62;;
48897;SDS011;34713;50.038;20.000;2022-12-18T01:02:36;61.53;;;25.93;;
48897;SDS011;34713;50.038;20.000;2022-12-18T01:05:04;61.80;;;26.25;;
48897;SDS011;34713;50.038;20.000;2022-12-18T01:07:31;71.80;;;28.27;;
48897;SDS011;34713;50.038;20.000;2022-12-18T01:09:57;61.80;;;27.05;;
48897;SDS011;34713;50.038;20.000;2022-12-18T01:12:23;63.85;;;27.90;;
48897;SDS011;34713;50.038;20.000;2022-12-18T01:14:48;62.90;;;26.50;;
48897;SDS011;34713;50.038;20.000;2022-12-18T01:17:14;64.20;;;27.32;;
48897;SDS011;34713;50.038;20.000;2022-12-18T01:19:40;64.07;;;26.48;;
48897;SDS011;34713;50.038;20.000;2022-12-18T01:22:06;60.00;;;26.15;;
48897;SDS011;34713;50.038;20.000;2022-12-18T01:24:31;63.33;;;28.62;;
48897;SDS011;34713;50.038;20.000;2022-12-18T01:26:57;60.80;;;26.02;;
48897;SDS011;34713;50.038;20.000;2022-12-18T01:29:23;56.75;;;26.00;;
48897;SDS011;34713;50.038;20.000;2022-12-18T01:31:49;60.25;;;25.95;;
48897;SDS011;34713;50.038;20.000;2022-12-18T01:34:14;61.75;;;27.22;;
48897;SDS011;34713;50.038;20.000;2022-12-18T01:36:41;62.20;;;27.85;;
48897;SDS011;34713;50.038;20.000;2022-12-18T01:39:09;58.75;;;25.75;;
48897;SDS011;34713;50.038;20.000;2022-12-18T01:41:39;60.73;;;25.12;;
48897;SDS011;34713;50.038;20.000;2022-12-18T01:47:39;59.98;;;25.00;;
48897;SDS011;34713;50.038;20.000;2022-12-18T01:50:15;59.15;;;25.15;;
48897;SDS011;34713;50.038;20.000;2022-12-18T01:55:44;61.98;;;25.12;;
48897;SDS011;34713;50.038;20.000;2022-12-18T01:58:12;52.67;;;24.18;;
48897;SDS011;34713;50.038;20.000;2022-12-18T02:00:39;61.77;;;26.35;;
48897;SDS011;34713;50.038;20.000;2022-12-18T02:03:05;60.85;;;25.68;;
48897;SDS011;34713;50.038;20.000;2022-12-18T02:05:36;66.47;;;26.55;;
48897;SDS011;34713;50.038;20.000;2022-12-18T02:08:41;57.53;;;26.30;;
48897;SDS011;34713;50.038;20.000;2022-12-18T02:14:11;58.75;;;25.05;;
48897;SDS011;34713;50.038;20.000;2022-12-18T02:16:52;56.98;;;24.43;;
48897;SDS011;34713;50.038;20.000;2022-12-18T02:28:23;59.42;;;24.87;;
48897;SDS011;34713;50.038;20.000;2022-12-18T02:30:53;57.08;;;25.32;;
48897;SDS011;34713;50.038;20.000;2022-12-18T02:33:24;55.08;;;24.10;;
48897;SDS011;34713;50.038;20.000;2022-12-18T02:35:52;55.05;;;24.40;;
48897;SDS011;34713;50.038;20.000;2022-12-18T02:38:20;61.00;;;26.17;;
48897;SDS011;34713;50.038;20.000;2022-12-18T02:40:46;54.03;;;25.35;;
48897;SDS011;34713;50.038;20.000;2022-12-18T02:43:14;55.58;;;26.33;;
48897;SDS011;34713;50.038;20.000;2022-12-18T02:45:48;64.42;;;26.90;;
48897;SDS011;34713;50.038;20.000;2022-12-18T02:48:18;57.65;;;26.17;;
48897;SDS011;34713;50.038;20.000;2022-12-18T02:51:39;60.45;;;25.55;;
48897;SDS011;34713;50.038;20.000;2022-12-18T02:53:40;57.53;;;25.52;;
48897;SDS011;34713;50.038;20.000;2022-12-18T02:58:47;59.90;;;24.37;;
48897;SDS011;34713;50.038;20.000;2022-12-18T03:01:38;55.67;;;26.23;;
48897;SDS011;34713;50.038;20.000;2022-12-18T03:04:14;59.53;;;25.32;;
48897;SDS011;34713;50.038;20.000;2022-12-18T03:06:54;55.38;;;23.38;;
48897;SDS011;34713;50.038;20.000;2022-12-18T03:12:06;54.38;;;24.95;;
48897;SDS011;34713;50.038;20.000;2022-12-18T03:14:56;52.93;;;23.45;;
48897;SDS011;34713;50.038;20.000;2022-12-18T03:17:32;56.60;;;25.08;;
48897;SDS011;34713;50.038;20.000;2022-12-18T03:20:02;52.78;;;23.83;;
48897;SDS011;34713;50.038;20.000;2022-12-18T03:22:30;51.45;;;22.02;;
48897;SDS011;34713;50.038;20.000;2022-12-18T03:24:58;54.90;;;23.67;;
48897;SDS011;34713;50.038;20.000;2022-12-18T03:27:28;57.20;;;23.50;;
48897;SDS011;34713;50.038;20.000;2022-12-18T03:30:03;55.05;;;25.92;;
48897;SDS011;34713;50.038;20.000;2022-12-18T03:32:44;54.75;;;24.55;;
48897;SDS011;34713;50.038;20.000;2022-12-18T03:35:12;50.90;;;22.52;;
48897;SDS011;34713;50.038;20.000;2022-12-18T03:37:41;61.55;;;26.65;;
48897;SDS011;34713;50.038;20.000;2022-12-18T03:40:07;55.33;;;25.40;;
48897;SDS011;34713;50.038;20.000;2022-12-18T03:42:40;56.77;;;23.35;;
48897;SDS011;34713;50.038;20.000;2022-12-18T03:45:25;59.27;;;26.23;;
48897;SDS011;34713;50.038;20.000;2022-12-18T03:56:04;53.83;;;24.75;;
48897;SDS011;34713;50.038;20.000;2022-12-18T03:58:31;55.50;;;24.37;;
48897;SDS011;34713;50.038;20.000;2022-12-18T04:01:00;56.02;;;24.77;;
48897;SDS011;34713;50.038;20.000;2022-12-18T04:03:29;56.45;;;24.47;;
48897;SDS011;34713;50.038;20.000;2022-12-18T04:05:57;62.62;;;28.83;;
48897;SDS011;34713;50.038;20.000;2022-12-18T04:08:25;57.08;;;24.45;;
48897;SDS011;34713;50.038;20.000;2022-12-18T04:10:51;59.00;;;26.20;;
48897;SDS011;34713;50.038;20.000;2022-12-18T04:13:52;59.63;;;24.52;;
48897;SDS011;34713;50.038;20.000;2022-12-18T04:15:57;52.15;;;24.77;;
48897;SDS011;34713;50.038;20.000;2022-12-18T04:18:23;57.73;;;25.48;;
48897;SDS011;34713;50.038;20.000;2022-12-18T04:20:48;55.70;;;23.40;;
48897;SDS011;34713;50.038;20.000;2022-12-18T04:23:14;56.33;;;24.85;;
48897;SDS011;34713;50.038;20.000;2022-12-18T04:25:40;55.30;;;23.73;;
48897;SDS011;34713;50.038;20.000;2022-12-18T04:28:06;58.33;;;25.10;;
48897;SDS011;34713;50.038;20.000;2022-12-18T04:30:31;56.33;;;24.18;;
48897;SDS011;34713;50.038;20.000;2022-12-18T04:32:57;57.17;;;22.62;;
48897;SDS011;34713;50.038;20.000;2022-12-18T04:35:23;52.70;;;23.25;;
48897;SDS011;34713;50.038;20.000;2022-12-18T04:37:49;54.30;;;23.73;;
48897;SDS011;34713;50.038;20.000;2022-12-18T04:40:15;55.48;;;24.52;;
48897;SDS011;34713;50.038;20.000;2022-12-18T04:42:41;54.93;;;23.95;;
48897;SDS011;34713;50.038;20.000;2022-12-18T04:45:07;53.35;;;23.18;;
48897;SDS011;34713;50.038;20.000;2022-12-18T04:47:33;55.88;;;23.75;;
48897;SDS011;34713;50.038;20.000;2022-12-18T04:49:59;53.42;;;23.22;;
48897;SDS011;34713;50.038;20.000;2022-12-18T04:52:25;53.63;;;24.75;;
48897;SDS011;34713;50.038;20.000;2022-12-18T04:54:51;51.92;;;24.32;;
48897;SDS011;34713;50.038;20.000;2022-12-18T04:57:16;55.20;;;23.47;;
48897;SDS011;34713;50.038;20.000;2022-12-18T04:59:45;55.15;;;23.30;;
48897;SDS011;34713;50.038;20.000;2022-12-18T05:02:10;48.68;;;23.40;;
48897;SDS011;34713;50.038;20.000;2022-12-18T05:04:36;49.80;;;21.90;;
48897;SDS011;34713;50.038;20.000;2022-12-18T05:07:02;50.75;;;21.75;;
48897;SDS011;34713;50.038;20.000;2022-12-18T05:09:28;54.25;;;22.00;;
48897;SDS011;34713;50.038;20.000;2022-12-18T05:11:54;52.33;;;23.95;;
48897;SDS011;34713;50.038;20.000;2022-12-18T05:14:19;54.60;;;23.83;;
48897;SDS011;34713;50.038;20.000;2022-12-18T05:16:45;55.00;;;23.00;;
48897;SDS011;34713;50.038;20.000;2022-12-18T05:19:11;50.30;;;24.12;;
48897;SDS011;34713;50.038;20.000;2022-12-18T05:21:37;53.87;;;22.75;;
48897;SDS011;34713;50.038;20.000;2022-12-18T05:24:03;55.88;;;23.27;;
48897;SDS011;34713;50.038;20.000;2022-12-18T05:26:29;53.55;;;23.98;;
48897;SDS011;34713;50.038;20.000;2022-12-18T05:28:55;51.65;;;23.75;;
48897;SDS011;34713;50.038;20.000;2022-12-18T05:31:21;57.00;;;24.37;;
48897;SDS011;34713;50.038;20.000;2022-12-18T05:33:47;57.58;;;23.87;;
48897;SDS011;34713;50.038;20.000;2022-12-18T05:36:13;62.38;;;23.35;;
48897;SDS011;34713;50.038;20.000;2022-12-18T05:38:39;51.92;;;22.58;;
48897;SDS011;34713;50.038;20.000;2022-12-18T05:41:06;57.13;;;23.27;;
48897;SDS011;34713;50.038;20.000;2022-12-18T05:43:34;64.50;;;25.05;;
48897;SDS011;34713;50.038;20.000;2022-12-18T05:46:11;53.42;;;23.85;;
48897;SDS011;34713;50.038;20.000;2022-12-18T05:48:35;54.77;;;23.65;;
48897;SDS011;34713;50.038;20.000;2022-12-18T05:51:04;53.75;;;23.27;;
48897;SDS011;34713;50.038;20.000;2022-12-18T05:53:33;51.33;;;24.47;;
48897;SDS011;34713;50.038;20.000;2022-12-18T05:56:01;51.55;;;24.02;;
48897;SDS011;34713;50.038;20.000;2022-12-18T05:58:29;50.20;;;22.42;;
48897;SDS011;34713;50.038;20.000;2022-12-18T06:00:56;56.60;;;24.10;;
48897;SDS011;34713;50.038;20.000;2022-12-18T06:03:22;51.90;;;22.93;;
48897;SDS011;34713;50.038;20.000;2022-12-18T06:05:48;54.55;;;22.75;;
48897;SDS011;34713;50.038;20.000;2022-12-18T06:08:13;48.58;;;22.82;;
48897;SDS011;34713;50.038;20.000;2022-12-18T06:10:40;60.17;;;24.80;;
48897;SDS011;34713;50.038;20.000;2022-12-18T06:13:06;47.48;;;22.20;;
48897;SDS011;34713;50.038;20.000;2022-12-18T06:15:32;57.95;;;23.45;;
48897;SDS011;34713;50.038;20.000;2022-12-18T06:18:03;50.88;;;22.20;;
48897;SDS011;34713;50.038;20.000;2022-12-18T06:20:29;50.58;;;23.55;;
48897;SDS011;34713;50.038;20.000;2022-12-18T06:22:56;55.57;;;23.83;;
48897;SDS011;34713;50.038;20.000;2022-12-18T06:25:22;55.15;;;24.18;;
48897;SDS011;34713;50.038;20.000;2022-12-18T06:27:47;59.23;;;24.65;;
48897;SDS011;34713;50.038;20.000;2022-12-18T06:30:13;56.75;;;24.07;;
48897;SDS011;34713;50.038;20.000;2022-12-18T06:32:40;55.67;;;22.60;;
48897;SDS011;34713;50.038;20.000;2022-12-18T06:35:06;60.30;;;25.50;;
48897;SDS011;34713;50.038;20.000;2022-12-18T06:37:32;57.95;;;24.80;;
48897;SDS011;34713;50.038;20.000;2022-12-18T06:39:58;53.92;;;24.95;;
48897;SDS011;34713;50.038;20.000;2022-12-18T06:42:24;52.38;;;24.80;;
48897;SDS011;34713;50.038;20.000;2022-12-18T06:44:50;58.78;;;24.63;;
48897;SDS011;34713;50.038;20.000;2022-12-18T06:47:16;56.23;;;23.10;;
48897;SDS011;34713;50.038;20.000;2022-12-18T06:49:42;55.50;;;24.12;;
48897;SDS011;34713;50.038;20.000;2022-12-18T06:52:08;60.25;;;26.00;;
48897;SDS011;34713;50.038;20.000;2022-12-18T06:54:34;58.17;;;24.67;;
48897;SDS011;34713;50.038;20.000;2022-12-18T06:56:59;57.08;;;23.98;;
48897;SDS011;34713;50.038;20.000;2022-12-18T06:59:25;53.42;;;24.23;;
48897;SDS011;34713;50.038;20.000;2022-12-18T07:01:51;60.10;;;24.77;;
48897;SDS011;34713;50.038;20.000;2022-12-18T07:04:17;61.77;;;24.98;;
48897;SDS011;34713;50.038;20.000;2022-12-18T07:06:43;54.95;;;24.65;;
48897;SDS011;34713;50.038;20.000;2022-12-18T07:09:08;56.50;;;24.70;;
48897;SDS011;34713;50.038;20.000;2022-12-18T07:11:34;56.92;;;25.82;;
48897;SDS011;34713;50.038;20.000;2022-12-18T07:14:00;59.08;;;25.92;;
48897;SDS011;34713;50.038;20.000;2022-12-18T07:16:26;53.58;;;25.23;;
48897;SDS011;34713;50.038;20.000;2022-12-18T07:18:54;58.02;;;25.80;;
48897;SDS011;34713;50.038;20.000;2022-12-18T07:21:21;59.15;;;25.25;;
48897;SDS011;34713;50.038;20.000;2022-12-18T07:23:48;64.20;;;27.52;;
48897;SDS011;34713;50.038;20.000;2022-12-18T07:26:14;57.48;;;25.15;;
48897;SDS011;34713;50.038;20.000;2022-12-18T07:28:43;58.95;;;25.23;;
48897;SDS011;34713;50.038;20.000;2022-12-18T07:31:10;58.98;;;25.17;;
48897;SDS011;34713;50.038;20.000;2022-12-18T07:33:40;60.12;;;26.20;;
48897;SDS011;34713;50.038;20.000;2022-12-18T07:36:07;59.15;;;25.82;;
48897;SDS011;34713;50.038;20.000;2022-12-18T07:38:34;62.30;;;24.90;;
48897;SDS011;34713;50.038;20.000;2022-12-18T07:41:01;59.58;;;24.05;;
48897;SDS011;34713;50.038;20.000;2022-12-18T07:43:30;55.03;;;25.60;;
48897;SDS011;34713;50.038;20.000;2022-12-18T07:45:56;56.48;;;24.85;;
48897;SDS011;34713;50.038;20.000;2022-12-18T07:48:21;63.17;;;25.70;;
48897;SDS011;34713;50.038;20.000;2022-12-18T07:50:47;58.20;;;25.65;;
48897;SDS011;34713;50.038;20.000;2022-12-18T07:53:13;61.73;;;25.40;;
48897;SDS011;34713;50.038;20.000;2022-12-18T07:55:40;59.18;;;25.77;;
48897;SDS011;34713;50.038;20.000;2022-12-18T07:58:07;63.58;;;28.75;;
48897;SDS011;34713;50.038;20.000;2022-12-18T08:00:33;62.95;;;26.55;;
48897;SDS011;34713;50.038;20.000;2022-12-18T08:02:59;61.25;;;25.82;;
48897;SDS011;34713;50.038;20.000;2022-12-18T08:05:25;58.42;;;23.90;;
48897;SDS011;34713;50.038;20.000;2022-12-18T08:07:52;59.38;;;26.97;;
48897;SDS011;34713;50.038;20.000;2022-12-18T08:10:19;60.38;;;26.30;;
48897;SDS011;34713;50.038;20.000;2022-12-18T08:12:48;59.23;;;24.65;;
48897;SDS011;34713;50.038;20.000;2022-12-18T08:15:16;56.88;;;25.40;;
48897;SDS011;34713;50.038;20.000;2022-12-18T08:17:42;59.45;;;25.90;;
48897;SDS011;34713;50.038;20.000;2022-12-18T08:20:08;55.10;;;25.27;;
48897;SDS011;34713;50.038;20.000;2022-12-18T08:22:35;62.03;;;26.42;;
48897;SDS011;34713;50.038;20.000;2022-12-18T08:25:01;62.05;;;27.20;;
48897;SDS011;34713;50.038;20.000;2022-12-18T08:27:28;59.15;;;26.52;;
48897;SDS011;34713;50.038;20.000;2022-12-18T08:29:54;63.10;;;26.35;;
48897;SDS011;34713;50.038;20.000;2022-12-18T08:32:21;64.30;;;27.13;;
48897;SDS011;34713;50.038;20.000;2022-12-18T08:34:47;64.92;;;27.93;;
48897;SDS011;34713;50.038;20.000;2022-12-18T08:37:12;60.33;;;28.07;;
48897;SDS011;34713;50.038;20.000;2022-12-18T08:39:38;62.35;;;28.20;;
48897;SDS011;34713;50.038;20.000;2022-12-18T08:42:04;68.35;;;29.57;;
48897;SDS011;34713;50.038;20.000;2022-12-18T08:44:47;65.00;;;27.07;;
48897;SDS011;34713;50.038;20.000;2022-12-18T08:47:13;67.05;;;28.25;;
48897;SDS011;34713;50.038;20.000;2022-12-18T08:49:39;64.05;;;27.22;;
48897;SDS011;34713;50.038;20.000;2022-12-18T08:52:05;63.05;;;26.75;;
48897;SDS011;34713;50.038;20.000;2022-12-18T08:54:31;61.28;;;27.17;;
48897;SDS011;34713;50.038;20.000;2022-12-18T08:56:57;64.42;;;28.67;;
48897;SDS011;34713;50.038;20.000;2022-12-18T08:59:23;63.98;;;28.45;;
48897;SDS011;34713;50.038;20.000;2022-12-18T09:01:49;69.03;;;29.05;;
48897;SDS011;34713;50.038;20.000;2022-12-18T09:04:14;63.33;;;26.80;;
48897;SDS011;34713;50.038;20.000;2022-12-18T09:06:40;63.38;;;27.50;;
48897;SDS011;34713;50.038;20.000;2022-12-18T09:09:06;61.70;;;26.87;;
48897;SDS011;34713;50.038;20.000;2022-12-18T09:11:33;65.50;;;27.10;;
48897;SDS011;34713;50.038;20.000;2022-12-18T09:13:59;60.70;;;28.05;;
48897;SDS011;34713;50.038;20.000;2022-12-18T09:16:26;60.85;;;25.68;;
48897;SDS011;34713;50.038;20.000;2022-12-18T09:18:54;65.15;;;30.08;;
48897;SDS011;34713;50.038;20.000;2022-12-18T09:21:22;66.65;;;28.07;;
48897;SDS011;34713;50.038;20.000;2022-12-18T09:23:53;67.37;;;28.40;;
48897;SDS011;34713;50.038;20.000;2022-12-18T09:26:17;58.33;;;25.40;;
48897;SDS011;34713;50.038;20.000;2022-12-18T09:28:43;59.60;;;26.20;;
48897;SDS011;34713;50.038;20.000;2022-12-18T09:31:10;58.40;;;26.15;;
48897;SDS011;34713;50.038;20.000;2022-12-18T09:33:38;61.18;;;26.23;;
48897;SDS011;34713;50.038;20.000;2022-12-18T09:36:05;59.35;;;25.70;;
48897;SDS011;34713;50.038;20.000;2022-12-18T09:38:34;59.70;;;24.98;;
48897;SDS011;34713;50.038;20.000;2022-12-18T09:41:06;56.60;;;24.05;;
48897;SDS011;34713;50.038;20.000;2022-12-18T09:46:17;51.55;;;24.72;;
48897;SDS011;34713;50.038;20.000;2022-12-18T09:48:47;59.88;;;26.25;;
48897;SDS011;34713;50.038;20.000;2022-12-18T09:51:18;56.92;;;25.72;;
48897;SDS011;34713;50.038;20.000;2022-12-18T09:53:58;59.63;;;25.88;;
48897;SDS011;34713;50.038;20.000;2022-12-18T09:56:34;60.30;;;25.57;;
48897;SDS011;34713;50.038;20.000;2022-12-18T09:59:03;65.83;;;26.40;;
48897;SDS011;34713;50.038;20.000;2022-12-18T10:01:31;60.48;;;25.57;;
48897;SDS011;34713;50.038;20.000;2022-12-18T10:03:57;58.33;;;25.50;;
48897;SDS011;34713;50.038;20.000;2022-12-18T10:15:04;54.85;;;26.02;;
48897;SDS011;34713;50.038;20.000;2022-12-18T10:17:51;53.05;;;22.52;;
48897;SDS011;34713;50.038;20.000;2022-12-18T10:20:38;55.20;;;24.35;;
48897;SDS011;34713;50.038;20.000;2022-12-18T10:28:31;49.83;;;23.27;;
48897;SDS011;34713;50.038;20.000;2022-12-18T10:31:00;52.38;;;24.10;;
48897;SDS011;34713;50.038;20.000;2022-12-18T10:33:29;50.58;;;23.45;;
48897;SDS011;34713;50.038;20.000;2022-12-18T10:35:57;44.88;;;20.30;;
48897;SDS011;34713;50.038;20.000;2022-12-18T10:41:01;51.65;;;22.95;;
48897;SDS011;34713;50.038;20.000;2022-12-18T10:43:46;45.12;;;20.48;;
48897;SDS011;34713;50.038;20.000;2022-12-18T10:46:14;53.95;;;22.13;;
48897;SDS011;34713;50.038;20.000;2022-12-18T10:54:02;47.45;;;22.15;;
48897;SDS011;34713;50.038;20.000;2022-12-18T10:56:34;50.63;;;22.58;;
48897;SDS011;34713;50.038;20.000;2022-12-18T10:59:03;50.65;;;21.37;;
48897;SDS011;34713;50.038;20.000;2022-12-18T11:04:26;47.48;;;21.20;;
48897;SDS011;34713;50.038;20.000;2022-12-18T11:07:07;47.20;;;20.57;;
48897;SDS011;34713;50.038;20.000;2022-12-18T11:09:32;47.50;;;21.27;;
48897;SDS011;34713;50.038;20.000;2022-12-18T11:12:04;46.80;;;20.92;;
48897;SDS011;34713;50.038;20.000;2022-12-18T11:14:46;45.00;;;21.55;;
48897;SDS011;34713;50.038;20.000;2022-12-18T11:17:20;43.40;;;19.57;;
48897;SDS011;34713;50.038;20.000;2022-12-18T11:19:59;46.85;;;19.67;;
48897;SDS011;34713;50.038;20.000;2022-12-18T11:22:32;45.98;;;20.10;;
48897;SDS011;34713;50.038;20.000;2022-12-18T11:25:17;49.25;;;21.48;;
48897;SDS011;34713;50.038;20.000;2022-12-18T11:27:39;40.35;;;19.67;;
48897;SDS011;34713;50.038;20.000;2022-12-18T11:30:10;38.75;;;18.48;;
48897;SDS011;34713;50.038;20.000;2022-12-18T11:33:10;39.50;;;16.75;;
48897;SDS011;34713;50.038;20.000;2022-12-18T11:35:53;39.85;;;17.62;;
48897;SDS011;34713;50.038;20.000;2022-12-18T11:38:32;37.20;;;17.75;;
48897;SDS011;34713;50.038;20.000;2022-12-18T11:41:12;35.65;;;16.90;;
48897;SDS011;34713;50.038;20.000;2022-12-18T11:44:01;32.38;;;15.00;;
48897;SDS011;34713;50.038;20.000;2022-12-18T11:46:32;34.95;;;15.43;;
48897;SDS011;34713;50.038;20.000;2022-12-18T11:49:03;34.25;;;15.75;;
48897;SDS011;34713;50.038;20.000;2022-12-18T11:54:32;37.38;;;14.58;;
48897;SDS011;34713;50.038;20.000;2022-12-18T12:00:00;29.20;;;14.45;;
48897;SDS011;34713;50.038;20.000;2022-12-18T12:25:37;29.82;;;13.98;;
48897;SDS011;34713;50.038;20.000;2022-12-18T12:28:19;31.97;;;13.50;;
48897;SDS011;34713;50.038;20.000;2022-12-18T12:39:08;30.12;;;14.50;;
48897;SDS011;34713;50.038;20.000;2022-12-18T12:41:38;31.20;;;13.83;;
48897;SDS011;34713;50.038;20.000;2022-12-18T12:44:09;30.72;;;13.93;;
48897;SDS011;34713;50.038;20.000;2022-12-18T12:46:39;30.82;;;14.55;;
48897;SDS011;34713;50.038;20.000;2022-12-18T12:49:13;30.50;;;13.75;;
48897;SDS011;34713;50.038;20.000;2022-12-18T12:51:40;27.58;;;14.38;;
48897;SDS011;34713;50.038;20.000;2022-12-18T12:54:15;29.48;;;14.73;;
48897;SDS011;34713;50.038;20.000;2022-12-18T13:05:31;36.73;;;18.92;;
48897;SDS011;34713;50.038;20.000;2022-12-18T13:08:26;31.77;;;15.18;;
48897;SDS011;34713;50.038;20.000;2022-12-18T13:10:56;32.78;;;15.18;;
48897;SDS011;34713;50.038;20.000;2022-12-18T13:13:50;30.30;;;15.08;;
48897;SDS011;34713;50.038;20.000;2022-12-18T13:16:20;27.82;;;14.25;;
48897;SDS011;34713;50.038;20.000;2022-12-18T13:18:52;33.55;;;14.85;;
48897;SDS011;34713;50.038;20.000;2022-12-18T13:21:23;31.10;;;14.68;;
48897;SDS011;34713;50.038;20.000;2022-12-18T13:23:57;32.45;;;14.65;;
48897;SDS011;34713;50.038;20.000;2022-12-18T13:26:42;35.52;;;15.95;;
48897;SDS011;34713;50.038;20.000;2022-12-18T13:29:08;35.25;;;16.02;;
48897;SDS011;34713;50.038;20.000;2022-12-18T13:34:19;35.50;;;16.32;;
48897;SDS011;34713;50.038;20.000;2022-12-18T13:36:55;38.58;;;17.00;;
48897;SDS011;34713;50.038;20.000;2022-12-18T13:39:30;31.85;;;14.63;;
48897;SDS011;34713;50.038;20.000;2022-12-18T13:44:39;39.48;;;18.07;;
48897;SDS011;34713;50.038;20.000;2022-12-18T13:50:10;43.70;;;18.73;;
48897;SDS011;34713;50.038;20.000;2022-12-18T13:52:50;45.17;;;20.50;;
48897;SDS011;34713;50.038;20.000;2022-12-18T13:55:18;41.63;;;19.80;;
48897;SDS011;34713;50.038;20.000;2022-12-18T13:57:46;51.30;;;22.37;;
48897;SDS011;34713;50.038;20.000;2022-12-18T14:00:33;53.10;;;22.32;;
48897;SDS011;34713;50.038;20.000;2022-12-18T14:02:55;48.45;;;20.52;;
48897;SDS011;34713;50.038;20.000;2022-12-18T14:05:27;53.10;;;23.32;;
48897;SDS011;34713;50.038;20.000;2022-12-18T14:08:06;49.85;;;22.87;;
48897;SDS011;34713;50.038;20.000;2022-12-18T14:10:39;49.25;;;22.75;;
48897;SDS011;34713;50.038;20.000;2022-12-18T14:13:17;57.93;;;24.20;;
48897;SDS011;34713;50.038;20.000;2022-12-18T14:15:53;52.93;;;24.90;;
48897;SDS011;34713;50.038;20.000;2022-12-18T14:20:54;44.98;;;21.17;;
48897;SDS011;34713;50.038;20.000;2022-12-18T14:26:02;48.52;;;22.65;;
48897;SDS011;34713;50.038;20.000;2022-12-18T14:28:31;59.23;;;27.70;;
48897;SDS011;34713;50.038;20.000;2022-12-18T14:30:57;54.15;;;25.17;;
48897;SDS011;34713;50.038;20.000;2022-12-18T14:33:24;58.63;;;24.20;;
48897;SDS011;34713;50.038;20.000;2022-12-18T14:38:33;61.10;;;27.77;;
48897;SDS011;34713;50.038;20.000;2022-12-18T14:43:38;55.20;;;25.48;;
48897;SDS011;34713;50.038;20.000;2022-12-18T14:46:40;60.20;;;25.77;;
48897;SDS011;34713;50.038;20.000;2022-12-18T14:49:00;54.58;;;25.25;;
48897;SDS011;34713;50.038;20.000;2022-12-18T14:51:33;59.58;;;27.37;;
48897;SDS011;34713;50.038;20.000;2022-12-18T14:56:37;54.45;;;25.30;;
48897;SDS011;34713;50.038;20.000;2022-12-18T14:59:03;57.75;;;26.57;;
48897;SDS011;34713;50.038;20.000;2022-12-18T15:01:36;63.50;;;28.50;;
48897;SDS011;34713;50.038;20.000;2022-12-18T15:04:27;61.83;;;26.17;;
48897;SDS011;34713;50.038;20.000;2022-12-18T15:07:10;57.10;;;25.43;;
48897;SDS011;34713;50.038;20.000;2022-12-18T15:12:49;61.30;;;24.65;;
48897;SDS011;34713;50.038;20.000;2022-12-18T15:20:41;64.90;;;25.52;;
48897;SDS011;34713;50.038;20.000;2022-12-18T15:26:03;58.40;;;26.77;;
48897;SDS011;34713;50.038;20.000;2022-12-18T15:36:22;62.55;;;28.35;;
48897;SDS011;34713;50.038;20.000;2022-12-18T15:38:49;68.87;;;27.58;;
48897;SDS011;34713;50.038;20.000;2022-12-18T15:41:18;64.55;;;27.75;;
48897;SDS011;34713;50.038;20.000;2022-12-18T15:43:46;63.85;;;27.40;;
48897;SDS011;34713;50.038;20.000;2022-12-18T15:46:19;60.58;;;27.50;;
48897;SDS011;34713;50.038;20.000;2022-12-18T15:48:48;66.55;;;26.85;;
48897;SDS011;34713;50.038;20.000;2022-12-18T15:54:01;67.30;;;29.67;;
48897;SDS011;34713;50.038;20.000;2022-12-18T15:56:30;61.75;;;27.30;;
48897;SDS011;34713;50.038;20.000;2022-12-18T15:59:15;64.65;;;27.55;;
48897;SDS011;34713;50.038;20.000;2022-12-18T16:01:44;64.97;;;29.30;;
48897;SDS011;34713;50.038;20.000;2022-12-18T16:04:13;76.50;;;31.80;;
48897;SDS011;34713;50.038;20.000;2022-12-18T16:06:41;69.35;;;29.02;;
48897;SDS011;34713;50.038;20.000;2022-12-18T16:09:08;67.65;;;29.23;;
48897;SDS011;34713;50.038;20.000;2022-12-18T16:11:34;64.72;;;28.83;;
48897;SDS011;34713;50.038;20.000;2022-12-18T16:14:19;72.47;;;30.85;;
48897;SDS011;34713;50.038;20.000;2022-12-18T16:16:49;67.08;;;28.92;;
48897;SDS011;34713;50.038;20.000;2022-12-18T16:19:18;70.85;;;30.43;;
48897;SDS011;34713;50.038;20.000;2022-12-18T16:21:44;72.20;;;29.42;;
48897;SDS011;34713;50.038;20.000;2022-12-18T16:24:17;80.53;;;32.75;;
48897;SDS011;34713;50.038;20.000;2022-12-18T16:26:47;72.75;;;31.95;;
48897;SDS011;34713;50.038;20.000;2022-12-18T16:29:14;70.25;;;30.32;;
48897;SDS011;34713;50.038;20.000;2022-12-18T16:31:40;68.17;;;30.77;;
48897;SDS011;34713;50.038;20.000;2022-12-18T16:34:13;70.22;;;30.97;;
48897;SDS011;34713;50.038;20.000;2022-12-18T16:36:49;79.27;;;32.50;;
48897;SDS011;34713;50.038;20.000;2022-12-18T16:39:15;75.45;;;30.92;;
48897;SDS011;34713;50.038;20.000;2022-12-18T16:41:41;75.72;;;31.87;;
48897;SDS011;34713;50.038;20.000;2022-12-18T16:44:07;77.90;;;32.83;;
48897;SDS011;34713;50.038;20.000;2022-12-18T16:46:33;76.40;;;32.33;;
48897;SDS011;34713;50.038;20.000;2022-12-18T16:48:59;76.70;;;32.05;;
48897;SDS011;34713;50.038;20.000;2022-12-18T16:51:26;82.45;;;35.25;;